Time;durP1;ratioP1;P1;durP2;ratioP2;P2;SDS_P1;SDS_P2;PMS_P1;PMS_P2;Temp;Humidity;BMP_temperature;BMP_pressure;BME280_temperature;BME280_humidity;BME280_pressure;Samples;Min_cycle;Max_cycle;Signal;HPM_P1;HPM_P2
2021/05/06 00:29:54;;;;;;;436.85;247.68;;;;;;;;;;5045996;28;20044;-79
2021/05/06 00:33:26;;;;;;;428.13;244.05;;;;;;;;;;5050645;28;20036;-77
2021/05/06 00:35:53;;;;;;;429.73;242.52;;;;;;;;;;5031557;28;20041;-77
2021/05/06 00:38:24;;;;;;;423.58;238.40;;;;;;;;;;5049128;28;20025;-76
2021/05/06 00:46:20;;;;;;;428.77;247.45;;;;;;;;;;5053056;28;20053;-77
2021/05/06 01:02:13;;;;;;;429.75;237.57;;;;;;;;;;5056811;28;20473;-77
2021/05/06 01:12:12;;;;;;;430.15;259.27;;;;;;;;;;5036847;28;20026;-78
2021/05/06 01:14:38;;;;;;;427.27;249.57;;;;;;;;;;5038111;28;20040;-80
2021/05/06 01:17:09;;;;;;;425.55;248.55;;;;;;;;;;5038335;28;20024;-78
2021/05/06 01:19:35;;;;;;;422.83;239.93;;;;;;;;;;5037465;28;20029;-79
2021/05/06 01:22:02;;;;;;;428.83;251.07;;;;;;;;;;5038652;28;20021;-78
2021/05/06 01:24:29;;;;;;;423.67;246.77;;;;;;;;;;5035909;28;20028;-78
2021/05/06 01:29:34;;;;;;;426.00;251.40;;;;;;;;;;5056494;28;20029;-78
2021/05/06 01:32:18;;;;;;;427.30;245.27;;;;;;;;;;5038475;28;20483;-77
2021/05/06 01:34:47;;;;;;;428.02;244.05;;;;;;;;;;5038477;28;20021;-78
2021/05/06 01:37:25;;;;;;;434.02;253.98;;;;;;;;;;5056247;28;20029;-78
2021/05/06 01:47:48;;;;;;;421.67;240.15;;;;;;;;;;5055867;28;20045;-78
2021/05/06 02:00:59;;;;;;;425.73;245.23;;;;;;;;;;5055926;28;20473;-79
2021/05/06 02:03:25;;;;;;;428.17;244.00;;;;;;;;;;5014066;28;20481;-79
2021/05/06 02:05:51;;;;;;;422.55;243.35;;;;;;;;;;4980951;28;20101;-79
2021/05/06 02:08:19;;;;;;;421.33;237.70;;;;;;;;;;4993507;28;20121;-79
2021/05/06 02:10:45;;;;;;;421.20;244.60;;;;;;;;;;4989665;28;20091;-79
2021/05/06 02:13:11;;;;;;;419.85;237.68;;;;;;;;;;5013792;28;20026;-79
2021/05/06 02:15:40;;;;;;;415.70;237.18;;;;;;;;;;5013865;28;20045;-79
2021/05/06 02:18:06;;;;;;;419.95;240.50;;;;;;;;;;5014169;28;20394;-79
2021/05/06 02:20:32;;;;;;;424.60;247.32;;;;;;;;;;5013799;28;20044;-79
2021/05/06 02:23:01;;;;;;;426.23;246.05;;;;;;;;;;4994964;28;20034;-79
2021/05/06 02:25:27;;;;;;;423.42;244.07;;;;;;;;;;5012085;28;20096;-79
2021/05/06 02:27:53;;;;;;;423.83;242.35;;;;;;;;;;5033287;28;20091;-79
2021/05/06 02:30:19;;;;;;;423.83;243.50;;;;;;;;;;5055352;28;20032;-79
2021/05/06 02:32:46;;;;;;;419.85;237.48;;;;;;;;;;5034094;28;20465;-79
2021/05/06 02:35:12;;;;;;;425.90;234.48;;;;;;;;;;5033954;28;20028;-79
2021/05/06 02:37:38;;;;;;;438.00;253.23;;;;;;;;;;5036108;28;20137;-79
2021/05/06 02:40:05;;;;;;;477.92;254.30;;;;;;;;;;5037261;28;20542;-79
2021/05/06 02:42:31;;;;;;;537.03;265.42;;;;;;;;;;5037047;28;20021;-79
2021/05/06 02:44:57;;;;;;;464.65;248.88;;;;;;;;;;5052081;28;20028;-79
2021/05/06 02:47:23;;;;;;;473.10;247.70;;;;;;;;;;5054821;28;20098;-79
2021/05/06 02:49:51;;;;;;;469.45;249.52;;;;;;;;;;5054812;28;20025;-79
2021/05/06 02:52:31;;;;;;;479.70;246.07;;;;;;;;;;5036993;28;20053;-79
2021/05/06 02:55:23;;;;;;;508.38;248.45;;;;;;;;;;5036848;28;20029;-79
2021/05/06 02:58:04;;;;;;;634.17;303.38;;;;;;;;;;5036813;28;20025;-79
2021/05/06 03:03:15;;;;;;;528.72;263.63;;;;;;;;;;5054985;28;20460;-79
2021/05/06 03:05:41;;;;;;;558.05;268.88;;;;;;;;;;5036684;28;20020;-79
2021/05/06 03:08:14;;;;;;;513.05;257.38;;;;;;;;;;5054395;28;20021;-79
2021/05/06 03:24:21;;;;;;;474.95;238.05;;;;;;;;;;5049002;28;20112;-78
2021/05/06 03:26:48;;;;;;;515.08;257.02;;;;;;;;;;5012211;28;20141;-79
2021/05/06 03:32:56;;;;;;;486.88;246.15;;;;;;;;;;4989819;28;20157;-79
2021/05/06 03:46:05;;;;;;;450.42;244.30;;;;;;;;;;5012225;28;20029;-78
2021/05/06 03:48:39;;;;;;;447.27;241.63;;;;;;;;;;4987228;28;20110;-78
2021/05/06 04:15:55;;;;;;;466.50;245.80;;;;;;;;;;5020948;28;20026;-81
2021/05/06 04:18:24;;;;;;;455.60;248.75;;;;;;;;;;5021523;28;20034;-79
2021/05/06 04:26:47;;;;;;;441.83;232.57;;;;;;;;;;5024791;28;20096;-80
2021/05/06 04:29:52;;;;;;;433.67;235.65;;;;;;;;;;5032238;28;20481;-80
2021/05/06 04:37:27;;;;;;;439.13;236.52;;;;;;;;;;5038103;28;20156;-79
2021/05/06 04:40:10;;;;;;;435.17;242.85;;;;;;;;;;5027704;28;20030;-79
2021/05/06 05:07:08;;;;;;;475.73;244.55;;;;;;;;;;5029175;28;20069;-78
2021/05/06 05:25:08;;;;;;;463.52;249.85;;;;;;;;;;5013172;28;20072;-78
2021/05/06 05:27:34;;;;;;;465.35;251.25;;;;;;;;;;5005194;28;20220;-77
2021/05/06 05:30:03;;;;;;;472.27;255.55;;;;;;;;;;4994120;28;20164;-79
2021/05/06 05:32:29;;;;;;;485.73;255.57;;;;;;;;;;5013116;28;20358;-79
2021/05/06 05:35:05;;;;;;;620.70;286.98;;;;;;;;;;5008690;28;20759;-78
2021/05/06 05:37:37;;;;;;;503.63;251.48;;;;;;;;;;5001042;28;20041;-78
2021/05/06 05:40:23;;;;;;;483.05;253.85;;;;;;;;;;5011216;28;20176;-78
2021/05/06 05:43:03;;;;;;;485.92;248.82;;;;;;;;;;5009950;28;20029;-79
2021/05/06 05:56:03;;;;;;;494.67;257.05;;;;;;;;;;5045763;28;20074;-78
2021/05/06 05:58:30;;;;;;;521.80;267.83;;;;;;;;;;5033910;28;20358;-78
2021/05/06 06:00:56;;;;;;;583.10;285.13;;;;;;;;;;5039269;28;20465;-78
2021/05/06 06:03:22;;;;;;;515.15;268.88;;;;;;;;;;5035379;28;20115;-80
2021/05/06 06:05:51;;;;;;;497.58;262.48;;;;;;;;;;5033395;28;20028;-79
2021/05/06 06:08:22;;;;;;;511.30;267.60;;;;;;;;;;5030736;28;20021;-79
2021/05/06 06:10:47;;;;;;;512.83;269.92;;;;;;;;;;5029707;28;20038;-78
2021/05/06 06:13:13;;;;;;;495.75;265.10;;;;;;;;;;5025998;28;20127;-78
2021/05/06 06:18:48;;;;;;;539.47;283.10;;;;;;;;;;5034012;28;20388;-79
2021/05/06 06:23:40;;;;;;;552.42;287.77;;;;;;;;;;5054123;28;20029;-79
2021/05/06 06:26:06;;;;;;;500.42;263.67;;;;;;;;;;5038406;28;20034;-78
2021/05/06 06:28:38;;;;;;;505.75;276.35;;;;;;;;;;5033792;28;20435;-79
2021/05/06 06:31:06;;;;;;;497.17;271.60;;;;;;;;;;5030939;28;20380;-79
2021/05/06 06:33:32;;;;;;;490.90;274.52;;;;;;;;;;5021255;28;20033;-79
2021/05/06 06:36:00;;;;;;;490.23;274.00;;;;;;;;;;5049197;28;20120;-79
2021/05/06 06:38:26;;;;;;;484.23;277.45;;;;;;;;;;5050116;28;20143;-80
2021/05/06 06:40:52;;;;;;;485.00;275.88;;;;;;;;;;5032981;28;20138;-82
2021/05/06 06:43:18;;;;;;;479.60;278.33;;;;;;;;;;5032985;28;20025;-80
2021/05/06 06:45:44;;;;;;;485.48;271.17;;;;;;;;;;5033022;28;20040;-81
2021/05/06 06:48:13;;;;;;;482.30;273.08;;;;;;;;;;5032639;28;20294;-82
2021/05/06 06:50:39;;;;;;;492.92;273.05;;;;;;;;;;5050925;28;20017;-80
2021/05/06 06:53:05;;;;;;;484.23;274.00;;;;;;;;;;5033425;28;20417;-81
2021/05/06 06:55:31;;;;;;;484.20;278.63;;;;;;;;;;5033591;28;20163;-81
2021/05/06 06:58:13;;;;;;;490.77;283.45;;;;;;;;;;5031962;28;20098;-82
2021/05/06 07:00:46;;;;;;;479.40;282.90;;;;;;;;;;5033814;28;20171;-82
2021/05/06 07:03:13;;;;;;;476.55;275.45;;;;;;;;;;5049260;28;20040;-83
2021/05/06 07:05:40;;;;;;;478.30;281.23;;;;;;;;;;5032056;28;20021;-82
2021/05/06 07:08:13;;;;;;;477.25;281.50;;;;;;;;;;5032461;28;20032;-84
2021/05/06 07:10:39;;;;;;;472.80;276.65;;;;;;;;;;5029196;28;20017;-83
2021/05/06 07:13:05;;;;;;;476.90;280.70;;;;;;;;;;5037142;28;20041;-83
2021/05/06 07:15:31;;;;;;;478.00;288.27;;;;;;;;;;5032086;28;20047;-83
2021/05/06 07:17:57;;;;;;;481.30;284.77;;;;;;;;;;5032049;28;20032;-83
2021/05/06 07:20:24;;;;;;;472.58;279.77;;;;;;;;;;5033901;28;20021;-85
2021/05/06 07:22:50;;;;;;;473.85;285.50;;;;;;;;;;5036263;28;20028;-85
2021/05/06 07:25:16;;;;;;;469.10;284.90;;;;;;;;;;5036243;28;20021;-83
2021/05/06 07:27:42;;;;;;;474.58;282.13;;;;;;;;;;5033485;28;20078;-83
2021/05/06 07:30:09;;;;;;;478.55;285.02;;;;;;;;;;5031975;28;20029;-86
2021/05/06 07:32:36;;;;;;;465.17;275.73;;;;;;;;;;5032562;28;20391;-85
2021/05/06 07:35:02;;;;;;;473.92;285.15;;;;;;;;;;5032455;28;20067;-84
2021/05/06 07:37:28;;;;;;;467.02;281.33;;;;;;;;;;5032155;28;20465;-86
2021/05/06 07:39:54;;;;;;;465.92;280.67;;;;;;;;;;5030846;28;20071;-85
2021/05/06 07:42:20;;;;;;;469.95;283.25;;;;;;;;;;5032896;28;20108;-86
2021/05/06 07:44:46;;;;;;;476.35;291.60;;;;;;;;;;5013594;28;20026;-82
2021/05/06 07:47:12;;;;;;;478.13;294.00;;;;;;;;;;5026373;28;20398;-87
2021/05/06 07:49:39;;;;;;;468.95;288.38;;;;;;;;;;5018986;28;20029;-83
2021/05/06 07:52:07;;;;;;;478.10;294.80;;;;;;;;;;5047793;28;20041;-80
2021/05/06 07:54:33;;;;;;;463.73;291.30;;;;;;;;;;5016521;28;20040;-79
2021/05/06 07:56:59;;;;;;;465.42;289.52;;;;;;;;;;5025979;28;20025;-83
2021/05/06 07:59:26;;;;;;;458.60;290.33;;;;;;;;;;5019133;28;20052;-79
2021/05/06 08:01:52;;;;;;;459.52;289.10;;;;;;;;;;5028381;28;20112;-76
2021/05/06 08:04:20;;;;;;;466.55;301.83;;;;;;;;;;5030229;28;20110;-79
2021/05/06 08:06:47;;;;;;;466.95;303.90;;;;;;;;;;5031518;28;20021;-82
2021/05/06 08:09:13;;;;;;;464.85;302.20;;;;;;;;;;5034623;28;20025;-78
2021/05/06 08:11:39;;;;;;;467.65;306.27;;;;;;;;;;5034328;28;20021;-76
2021/05/06 08:14:05;;;;;;;463.55;298.60;;;;;;;;;;5033974;28;20021;-81
2021/05/06 08:16:31;;;;;;;460.92;303.08;;;;;;;;;;5030400;28;20029;-75
2021/05/06 08:18:57;;;;;;;468.52;309.42;;;;;;;;;;5024303;28;20062;-79
2021/05/06 08:21:24;;;;;;;461.85;298.27;;;;;;;;;;5031788;28;20667;-76
2021/05/06 08:23:50;;;;;;;466.70;307.17;;;;;;;;;;5034112;28;20370;-78
2021/05/06 08:26:16;;;;;;;463.80;301.33;;;;;;;;;;5032812;28;20025;-78
2021/05/06 08:28:43;;;;;;;467.38;306.23;;;;;;;;;;5032298;28;20504;-87
2021/05/06 08:31:09;;;;;;;463.13;301.80;;;;;;;;;;5032983;28;20033;-77
2021/05/06 08:33:35;;;;;;;469.67;304.60;;;;;;;;;;5052261;28;20028;-75
2021/05/06 08:36:01;;;;;;;468.95;310.70;;;;;;;;;;5034009;28;20115;-81
2021/05/06 08:38:27;;;;;;;472.45;320.88;;;;;;;;;;5028793;28;20021;-75
2021/05/06 08:40:54;;;;;;;468.25;321.23;;;;;;;;;;5034276;28;20082;-76
2021/05/06 08:43:21;;;;;;;471.45;323.52;;;;;;;;;;5033830;28;20028;-76
2021/05/06 08:45:51;;;;;;;467.73;315.38;;;;;;;;;;5050619;28;20028;-78
2021/05/06 08:48:17;;;;;;;469.60;310.75;;;;;;;;;;5032629;28;20025;-77
2021/05/06 08:53:47;;;;;;;473.48;311.88;;;;;;;;;;5052777;28;20111;-77
2021/05/06 08:56:13;;;;;;;475.65;314.67;;;;;;;;;;5032964;28;20052;-78
2021/05/06 08:58:39;;;;;;;492.15;315.30;;;;;;;;;;5030726;28;20053;-76
2021/05/06 09:01:04;;;;;;;515.78;333.30;;;;;;;;;;5049863;28;20369;-75
2021/05/06 09:03:31;;;;;;;519.50;359.52;;;;;;;;;;5034830;28;20048;-74
2021/05/06 09:06:17;;;;;;;516.03;381.30;;;;;;;;;;5052555;28;20041;-76
2021/05/06 09:08:44;;;;;;;500.98;382.00;;;;;;;;;;5051268;28;20017;-79
2021/05/06 09:11:10;;;;;;;490.63;378.27;;;;;;;;;;5048240;28;20071;-75
2021/05/06 09:13:36;;;;;;;488.35;378.95;;;;;;;;;;5052084;28;20654;-77
2021/05/06 09:16:26;;;;;;;492.35;396.83;;;;;;;;;;5034180;28;20427;-78
2021/05/06 09:18:52;;;;;;;494.42;400.30;;;;;;;;;;5036810;28;20016;-77
2021/05/06 09:21:24;;;;;;;492.42;405.42;;;;;;;;;;5037001;28;20121;-77
2021/05/06 09:24:02;;;;;;;475.75;375.10;;;;;;;;;;5042035;28;20033;-76
2021/05/06 09:26:29;;;;;;;479.80;367.25;;;;;;;;;;5023671;28;20025;-76
2021/05/06 09:28:55;;;;;;;482.35;379.85;;;;;;;;;;5039958;28;20086;-77
2021/05/06 09:31:24;;;;;;;491.60;400.05;;;;;;;;;;5037845;28;20033;-78
2021/05/06 09:33:50;;;;;;;483.92;387.17;;;;;;;;;;5053518;28;20053;-76
2021/05/06 09:36:20;;;;;;;482.42;390.38;;;;;;;;;;5037344;28;20037;-76
2021/05/06 09:38:49;;;;;;;485.45;392.13;;;;;;;;;;5037656;28;20111;-77
2021/05/06 09:41:21;;;;;;;481.92;380.90;;;;;;;;;;5050807;28;20028;-76
2021/05/06 09:43:53;;;;;;;476.20;359.92;;;;;;;;;;5036600;28;20021;-83
2021/05/06 09:46:29;;;;;;;478.38;349.63;;;;;;;;;;5054779;28;20052;-78
2021/05/06 09:49:06;;;;;;;476.15;344.17;;;;;;;;;;5037199;28;20029;-78
2021/05/06 09:51:48;;;;;;;482.13;342.60;;;;;;;;;;5033530;28;20503;-79
2021/05/06 09:54:20;;;;;;;488.33;343.33;;;;;;;;;;5037493;28;20112;-79
2021/05/06 09:56:47;;;;;;;493.65;363.42;;;;;;;;;;5035699;28;20028;-77
2021/05/06 09:59:22;;;;;;;501.27;379.05;;;;;;;;;;5037247;28;20033;-79
2021/05/06 10:01:48;;;;;;;499.98;378.63;;;;;;;;;;5024760;28;20034;-80
2021/05/06 10:04:16;;;;;;;498.48;388.23;;;;;;;;;;5032519;28;20029;-79
2021/05/06 10:06:43;;;;;;;505.63;406.55;;;;;;;;;;5026459;28;20039;-77
2021/05/06 10:09:09;;;;;;;535.00;455.73;;;;;;;;;;5031972;28;20025;-81
2021/05/06 10:11:35;;;;;;;529.45;464.85;;;;;;;;;;5035495;28;20025;-80
2021/05/06 10:14:01;;;;;;;529.10;456.83;;;;;;;;;;5036050;28;20036;-81
2021/05/06 10:16:30;;;;;;;516.35;442.20;;;;;;;;;;5032908;28;20519;-88
2021/05/06 10:18:56;;;;;;;509.15;424.63;;;;;;;;;;5032653;28;20119;-80
2021/05/06 10:21:22;;;;;;;511.20;411.50;;;;;;;;;;5036261;28;20508;-79
2021/05/06 10:23:50;;;;;;;528.95;391.25;;;;;;;;;;5035969;28;20021;-79
2021/05/06 10:26:17;;;;;;;531.85;378.90;;;;;;;;;;5045960;28;20041;-79
2021/05/06 10:28:45;;;;;;;523.70;368.40;;;;;;;;;;5050911;28;20151;-78
2021/05/06 10:31:11;;;;;;;512.67;353.35;;;;;;;;;;5049986;28;20645;-81
2021/05/06 10:33:38;;;;;;;507.98;370.85;;;;;;;;;;5028156;28;20017;-79
2021/05/06 10:36:05;;;;;;;507.67;377.88;;;;;;;;;;5016091;28;20029;-77
2021/05/06 10:38:42;;;;;;;509.33;391.50;;;;;;;;;;5026229;28;20183;-79
2021/05/06 10:41:25;;;;;;;491.52;384.75;;;;;;;;;;5051106;28;20393;-76
2021/05/06 10:43:58;;;;;;;487.10;374.90;;;;;;;;;;5028422;28;20033;-79
2021/05/06 10:46:43;;;;;;;489.08;381.58;;;;;;;;;;5035543;28;20507;-78
2021/05/06 10:49:09;;;;;;;482.17;383.98;;;;;;;;;;5022526;28;20021;-78
2021/05/06 10:51:35;;;;;;;482.20;382.17;;;;;;;;;;5053869;28;20048;-78
2021/05/06 10:54:21;;;;;;;473.92;367.75;;;;;;;;;;5033803;28;20056;-78
2021/05/06 10:56:47;;;;;;;477.55;366.48;;;;;;;;;;5032585;28;20040;-78
2021/05/06 10:59:23;;;;;;;482.67;382.65;;;;;;;;;;5032541;28;20033;-78
2021/05/06 11:01:49;;;;;;;480.45;377.88;;;;;;;;;;5035211;28;20033;-78
2021/05/06 11:04:15;;;;;;;492.35;385.20;;;;;;;;;;5046961;28;20014;-77
2021/05/06 11:06:41;;;;;;;489.85;375.77;;;;;;;;;;5029836;28;20030;-78
2021/05/06 11:09:26;;;;;;;481.33;368.83;;;;;;;;;;5040464;28;20477;-79
2021/05/06 11:12:11;;;;;;;479.92;351.95;;;;;;;;;;5032921;28;20408;-78
2021/05/06 11:14:57;;;;;;;479.10;346.10;;;;;;;;;;5047963;28;20033;-78
2021/05/06 11:17:23;;;;;;;494.52;348.92;;;;;;;;;;5022781;28;20037;-77
2021/05/06 11:19:49;;;;;;;482.05;337.63;;;;;;;;;;5021852;28;20027;-79
2021/05/06 11:22:33;;;;;;;477.25;327.33;;;;;;;;;;5026523;28;20036;-76
2021/05/06 11:24:59;;;;;;;473.80;319.88;;;;;;;;;;5051411;28;20029;-80
2021/05/06 11:27:35;;;;;;;464.55;308.15;;;;;;;;;;5040749;28;20546;-76
2021/05/06 11:30:20;;;;;;;472.25;303.17;;;;;;;;;;5013916;28;20087;-80
2021/05/06 11:32:50;;;;;;;475.70;302.77;;;;;;;;;;5019460;28;20053;-77
2021/05/06 11:35:17;;;;;;;466.50;290.45;;;;;;;;;;5051984;28;20037;-78
2021/05/06 11:37:51;;;;;;;459.98;288.35;;;;;;;;;;5035702;28;20473;-78
2021/05/06 11:40:26;;;;;;;456.95;285.20;;;;;;;;;;5035568;28;20025;-81
2021/05/06 11:42:53;;;;;;;454.15;273.95;;;;;;;;;;5022548;28;20025;-85
2021/05/06 11:45:23;;;;;;;469.95;282.13;;;;;;;;;;5030106;28;20326;-77
2021/05/06 11:47:49;;;;;;;463.10;280.17;;;;;;;;;;5042711;28;20296;-77
2021/05/06 11:50:22;;;;;;;470.17;279.05;;;;;;;;;;5043219;28;20276;-81
2021/05/06 11:52:48;;;;;;;476.27;275.80;;;;;;;;;;5045422;28;20057;-78
2021/05/06 11:55:29;;;;;;;482.90;286.23;;;;;;;;;;5032091;28;20039;-81
2021/05/06 11:57:55;;;;;;;486.23;282.38;;;;;;;;;;5017941;28;20025;-81
2021/05/06 12:00:24;;;;;;;473.95;289.05;;;;;;;;;;5028867;28;20020;-80
2021/05/06 12:02:57;;;;;;;475.00;300.02;;;;;;;;;;5052223;28;20021;-82
2021/05/06 12:05:23;;;;;;;481.95;301.50;;;;;;;;;;5039134;28;20025;-81
2021/05/06 12:08:02;;;;;;;475.95;310.17;;;;;;;;;;5052284;28;20108;-79
2021/05/06 12:10:28;;;;;;;470.63;324.38;;;;;;;;;;5017640;28;20613;-79
2021/05/06 12:13:01;;;;;;;478.73;345.85;;;;;;;;;;5048868;28;20438;-79
2021/05/06 12:15:28;;;;;;;484.63;377.83;;;;;;;;;;5052291;28;20529;-79
2021/05/06 12:18:13;;;;;;;486.95;396.45;;;;;;;;;;5034513;28;20029;-80
2021/05/06 12:20:56;;;;;;;488.45;409.63;;;;;;;;;;5040366;28;20449;-79
2021/05/06 12:23:23;;;;;;;485.02;412.38;;;;;;;;;;5032763;28;20021;-81
2021/05/06 12:25:49;;;;;;;486.23;417.02;;;;;;;;;;5030351;28;20040;-79
2021/05/06 12:28:16;;;;;;;484.25;414.17;;;;;;;;;;5048676;28;20025;-81
2021/05/06 12:30:42;;;;;;;480.77;406.35;;;;;;;;;;5048801;28;20435;-80
2021/05/06 12:33:08;;;;;;;475.98;399.23;;;;;;;;;;5044019;28;20108;-81
2021/05/06 12:35:48;;;;;;;471.60;391.88;;;;;;;;;;5027758;28;20118;-80
2021/05/06 12:38:39;;;;;;;477.48;385.23;;;;;;;;;;5046825;28;20060;-80
2021/05/06 12:41:06;;;;;;;469.67;380.70;;;;;;;;;;5045630;28;20021;-80
2021/05/06 12:43:34;;;;;;;469.15;381.40;;;;;;;;;;5047564;28;20465;-80
2021/05/06 12:46:00;;;;;;;464.77;367.02;;;;;;;;;;5028817;28;20049;-80
2021/05/06 12:48:40;;;;;;;461.30;360.90;;;;;;;;;;5025457;28;20508;-79
2021/05/06 12:51:08;;;;;;;464.35;354.58;;;;;;;;;;5052584;28;20108;-80
2021/05/06 12:56:40;;;;;;;463.88;344.48;;;;;;;;;;5045532;28;20040;-80
2021/05/06 12:59:25;;;;;;;463.90;342.50;;;;;;;;;;5038166;28;20473;-81
2021/05/06 13:01:52;;;;;;;474.42;344.88;;;;;;;;;;5038807;28;20079;-81
2021/05/06 13:04:56;;;;;;;461.20;325.40;;;;;;;;;;5056094;28;20074;-80
2021/05/06 13:07:22;;;;;;;461.58;324.92;;;;;;;;;;4939647;29;20030;-79
2021/05/06 13:09:49;;;;;;;459.52;323.80;;;;;;;;;;5027754;28;20546;-80
2021/05/06 13:12:19;;;;;;;455.67;326.30;;;;;;;;;;5044381;28;20024;-80
2021/05/06 13:14:45;;;;;;;;;;;;;;;;;;5034244;28;20120;-79
2021/05/06 13:17:23;;;;;;;454.27;316.02;;;;;;;;;;5055753;28;20321;-79
2021/05/06 13:19:49;;;;;;;452.67;320.83;;;;;;;;;;5048715;28;20024;-79
2021/05/06 13:22:15;;;;;;;453.67;324.52;;;;;;;;;;5037897;28;20025;-79
2021/05/06 13:24:43;;;;;;;452.92;318.45;;;;;;;;;;5037970;28;20025;-78
2021/05/06 13:27:23;;;;;;;451.55;319.35;;;;;;;;;;5037972;28;20063;-77
2021/05/06 13:29:56;;;;;;;455.40;312.17;;;;;;;;;;5043759;28;20072;-81
2021/05/06 13:32:32;;;;;;;458.67;322.20;;;;;;;;;;5038013;28;20043;-78
2021/05/06 13:34:59;;;;;;;449.65;312.20;;;;;;;;;;5055463;28;20021;-78
2021/05/06 13:37:35;;;;;;;454.23;321.40;;;;;;;;;;5037635;28;20462;-78
2021/05/06 13:40:01;;;;;;;454.55;319.65;;;;;;;;;;5044962;28;20695;-78
2021/05/06 13:42:27;;;;;;;453.65;322.25;;;;;;;;;;5054864;28;20025;-79
2021/05/06 13:44:56;;;;;;;458.05;321.35;;;;;;;;;;5049444;28;20024;-78
2021/05/06 13:47:25;;;;;;;452.85;319.60;;;;;;;;;;5046773;28;20048;-78
2021/05/06 13:49:51;;;;;;;456.90;329.67;;;;;;;;;;5037622;28;20033;-75
2021/05/06 13:52:19;;;;;;;459.35;331.35;;;;;;;;;;5031721;28;20105;-78
2021/05/06 13:54:45;;;;;;;468.88;353.25;;;;;;;;;;5038855;28;20039;-78
2021/05/06 13:57:11;;;;;;;463.92;352.20;;;;;;;;;;5053712;28;20021;-78
2021/05/06 13:59:37;;;;;;;460.63;354.05;;;;;;;;;;5029217;28;20036;-79
2021/05/06 14:02:03;;;;;;;464.83;351.08;;;;;;;;;;5037442;28;20037;-78
2021/05/06 14:04:29;;;;;;;462.88;350.23;;;;;;;;;;5036077;28;20032;-78
2021/05/06 14:06:55;;;;;;;456.85;339.98;;;;;;;;;;5054891;28;20404;-77
2021/05/06 14:09:21;;;;;;;462.73;345.08;;;;;;;;;;5021562;28;20057;-77
2021/05/06 14:11:48;;;;;;;460.38;343.23;;;;;;;;;;5035149;28;20174;-78
2021/05/06 14:14:16;;;;;;;459.08;342.73;;;;;;;;;;5055133;28;20028;-77
2021/05/06 14:16:42;;;;;;;463.67;348.92;;;;;;;;;;5054700;28;20021;-79
2021/05/06 14:19:08;;;;;;;461.52;344.00;;;;;;;;;;5036915;28;20049;-77
2021/05/06 14:21:35;;;;;;;465.05;355.30;;;;;;;;;;5055007;28;20021;-76
2021/05/06 14:24:01;;;;;;;467.13;356.80;;;;;;;;;;5054975;28;20079;-77
2021/05/06 14:26:27;;;;;;;467.58;354.98;;;;;;;;;;5053587;28;20540;-78
2021/05/06 14:28:53;;;;;;;467.48;357.92;;;;;;;;;;5033051;28;20025;-79
2021/05/06 14:31:19;;;;;;;469.92;361.05;;;;;;;;;;5052733;28;20033;-77
2021/05/06 14:33:46;;;;;;;463.67;354.10;;;;;;;;;;5054470;28;20060;-76
2021/05/06 14:36:13;;;;;;;466.30;361.00;;;;;;;;;;5054599;28;20029;-79
2021/05/06 14:38:40;;;;;;;466.27;361.90;;;;;;;;;;5036730;28;20580;-77
2021/05/06 14:41:07;;;;;;;467.77;366.23;;;;;;;;;;5036779;28;20017;-78
2021/05/06 14:43:33;;;;;;;471.30;370.38;;;;;;;;;;5031267;28;20477;-78
2021/05/06 14:45:59;;;;;;;474.15;369.88;;;;;;;;;;5021872;28;20044;-77
2021/05/06 14:48:25;;;;;;;468.25;358.65;;;;;;;;;;5030212;28;20060;-77
2021/05/06 14:50:52;;;;;;;466.40;361.65;;;;;;;;;;5025662;28;20025;-77
2021/05/06 14:53:18;;;;;;;467.58;362.00;;;;;;;;;;5035803;28;20021;-78
2021/05/06 14:55:44;;;;;;;462.38;353.35;;;;;;;;;;5036346;28;20432;-78
2021/05/06 14:58:10;;;;;;;467.55;359.00;;;;;;;;;;5034634;28;20556;-78
2021/05/06 15:00:36;;;;;;;466.45;359.55;;;;;;;;;;5054160;28;20493;-78
2021/05/06 15:03:02;;;;;;;467.10;363.15;;;;;;;;;;5032932;28;20033;-78
2021/05/06 15:05:29;;;;;;;463.45;354.35;;;;;;;;;;5050712;28;20017;-78
2021/05/06 15:07:55;;;;;;;466.23;356.88;;;;;;;;;;5032660;28;20034;-78
2021/05/06 15:10:21;;;;;;;465.85;353.20;;;;;;;;;;5033158;28;20116;-78
2021/05/06 15:12:48;;;;;;;464.92;357.50;;;;;;;;;;5035745;28;20025;-78
2021/05/06 15:15:14;;;;;;;465.25;348.92;;;;;;;;;;5035448;28;20115;-77
2021/05/06 15:17:40;;;;;;;464.85;356.52;;;;;;;;;;5035315;28;20603;-77
2021/05/06 15:20:07;;;;;;;461.80;347.50;;;;;;;;;;5035672;28;20408;-77
2021/05/06 15:22:33;;;;;;;462.60;345.52;;;;;;;;;;5053479;28;20025;-79
2021/05/06 15:24:59;;;;;;;457.58;337.25;;;;;;;;;;5028027;28;20025;-77
2021/05/06 15:27:25;;;;;;;454.67;334.45;;;;;;;;;;5046638;28;20025;-78
2021/05/06 15:29:52;;;;;;;460.65;338.30;;;;;;;;;;5034504;28;20029;-77
2021/05/06 15:32:18;;;;;;;462.33;344.95;;;;;;;;;;5030555;28;20827;-78
2021/05/06 15:34:44;;;;;;;466.00;343.50;;;;;;;;;;5032357;28;20021;-78
2021/05/06 15:37:10;;;;;;;460.48;338.38;;;;;;;;;;5033226;28;20408;-78
2021/05/06 15:39:37;;;;;;;460.25;344.45;;;;;;;;;;5052535;28;20055;-78
2021/05/06 15:42:03;;;;;;;458.90;338.70;;;;;;;;;;5036268;28;20036;-77
2021/05/06 15:44:29;;;;;;;460.00;337.40;;;;;;;;;;5034398;28;20027;-78
2021/05/06 15:46:59;;;;;;;458.55;336.98;;;;;;;;;;5034506;28;20052;-77
2021/05/06 15:49:35;;;;;;;459.03;334.77;;;;;;;;;;5052895;28;20025;-77
2021/05/06 15:52:01;;;;;;;458.80;337.23;;;;;;;;;;5026260;28;21717;-76
2021/05/06 15:54:28;;;;;;;456.52;338.42;;;;;;;;;;5034955;28;20025;-76
2021/05/06 15:56:54;;;;;;;459.42;346.60;;;;;;;;;;5038390;28;20495;-77
2021/05/06 15:59:21;;;;;;;455.23;344.25;;;;;;;;;;5052939;28;20036;-78
2021/05/06 16:01:48;;;;;;;463.00;346.13;;;;;;;;;;5052568;28;20102;-77
2021/05/06 16:04:17;;;;;;;456.70;341.33;;;;;;;;;;5035256;28;20487;-78
2021/05/06 16:06:43;;;;;;;454.67;339.50;;;;;;;;;;5052795;28;20071;-77
2021/05/06 16:09:09;;;;;;;456.90;341.98;;;;;;;;;;5052454;28;20649;-77
2021/05/06 16:11:35;;;;;;;463.27;340.95;;;;;;;;;;5052686;28;20021;-76
2021/05/06 16:14:01;;;;;;;458.63;342.20;;;;;;;;;;5052641;28;20728;-77
2021/05/06 16:16:28;;;;;;;456.30;333.80;;;;;;;;;;5034830;28;20063;-77
2021/05/06 16:18:54;;;;;;;454.58;330.65;;;;;;;;;;5033794;28;20113;-77
2021/05/06 16:21:20;;;;;;;450.10;325.20;;;;;;;;;;5051720;28;20029;-78
2021/05/06 16:23:46;;;;;;;453.50;329.20;;;;;;;;;;5035032;28;20439;-77
2021/05/06 16:26:13;;;;;;;462.42;336.25;;;;;;;;;;5033367;28;20385;-76
2021/05/06 16:28:39;;;;;;;457.33;331.40;;;;;;;;;;5041049;28;20047;-77
2021/05/06 16:31:05;;;;;;;458.58;334.65;;;;;;;;;;5034447;28;20021;-77
2021/05/06 16:33:36;;;;;;;457.35;333.67;;;;;;;;;;5034926;28;20427;-77
2021/05/06 16:38:30;;;;;;;457.23;334.13;;;;;;;;;;5052901;28;20044;-77
2021/05/06 16:41:02;;;;;;;456.27;330.40;;;;;;;;;;5034434;28;20032;-76
2021/05/06 16:43:44;;;;;;;454.80;336.13;;;;;;;;;;5052560;28;20018;-77
2021/05/06 16:46:14;;;;;;;454.60;333.45;;;;;;;;;;5032804;28;20029;-79
2021/05/06 16:48:41;;;;;;;460.02;340.70;;;;;;;;;;5034220;28;20045;-77
2021/05/06 16:51:07;;;;;;;457.35;339.35;;;;;;;;;;5034508;28;20025;-76
2021/05/06 16:53:33;;;;;;;456.75;336.10;;;;;;;;;;5031033;28;20030;-79
2021/05/06 16:55:59;;;;;;;458.60;332.27;;;;;;;;;;5036066;28;20025;-78
2021/05/06 16:58:25;;;;;;;457.35;333.40;;;;;;;;;;5033816;28;20049;-78
2021/05/06 17:00:53;;;;;;;453.73;331.48;;;;;;;;;;5033509;28;20112;-77
2021/05/06 17:03:19;;;;;;;456.38;333.70;;;;;;;;;;5021344;28;20037;-77
2021/05/06 17:05:46;;;;;;;460.10;336.80;;;;;;;;;;5046668;28;20538;-77
2021/05/06 17:08:12;;;;;;;457.23;326.77;;;;;;;;;;5033068;28;20086;-78
2021/05/06 17:10:38;;;;;;;459.63;335.30;;;;;;;;;;5032831;28;20546;-77
2021/05/06 17:13:10;;;;;;;458.33;336.30;;;;;;;;;;5034452;28;20705;-77
2021/05/06 17:15:36;;;;;;;457.08;329.23;;;;;;;;;;5034439;28;20477;-77
2021/05/06 17:18:02;;;;;;;462.38;335.77;;;;;;;;;;5051859;28;20028;-77
2021/05/06 17:20:28;;;;;;;462.27;331.02;;;;;;;;;;5052093;28;20070;-77
2021/05/06 17:22:54;;;;;;;461.65;339.95;;;;;;;;;;5041923;28;20024;-77
2021/05/06 17:25:21;;;;;;;458.83;333.42;;;;;;;;;;5052036;28;20025;-77
2021/05/06 17:27:47;;;;;;;457.27;329.42;;;;;;;;;;5050594;28;20381;-77
2021/05/06 17:30:16;;;;;;;452.95;323.88;;;;;;;;;;5052187;28;20028;-77
2021/05/06 17:32:42;;;;;;;455.88;328.80;;;;;;;;;;5052039;28;20053;-77